Time;durP1;ratioP1;P1;durP2;ratioP2;P2;SDS_P1;SDS_P2;PMS_P1;PMS_P2;Temp;Humidity;BMP_temperature;BMP_pressure;BME280_temperature;BME280_humidity;BME280_pressure;Samples;Min_cycle;Max_cycle;Signal;HPM_P1;HPM_P2
2023/04/12 00:00:14;;;;;;;;;;;;;;;3.42;100.00;100058.00;5035019;28;19921;-76
2023/04/12 00:02:40;;;;;;;;;;;;;;;3.39;100.00;100044.78;5034938;28;19939;-76
2023/04/12 00:05:08;;;;;;;;;;;;;;;3.34;100.00;100046.13;5035370;28;19920;-75
2023/04/12 00:07:33;;;;;;;;;;;;;;;3.33;100.00;100043.78;5035454;28;20394;-77
2023/04/12 00:09:58;;;;;;;;;;;;;;;3.38;100.00;100040.38;5019044;28;19920;-76
2023/04/12 00:12:24;;;;;;;;;;;;;;;3.39;100.00;100039.91;5036999;28;19917;-76
2023/04/12 00:14:49;;;;;;;;;;;;;;;3.37;100.00;100027.50;5037053;28;19967;-76
2023/04/12 00:17:15;;;;;;;;;;;;;;;3.31;100.00;100034.94;5019202;28;20366;-76
2023/04/12 00:19:43;;;;;;;;;;;;;;;3.31;100.00;100040.59;5018963;28;19913;-76
2023/04/12 00:22:09;;;;;;;;;;;;;;;3.32;100.00;100028.84;5019599;28;19917;-76
2023/04/12 00:24:34;;;;;;;;;;;;;;;3.27;100.00;100028.63;5036813;28;19959;-75
2023/04/12 00:27:04;;;;;;;;;;;;;;;3.22;100.00;100022.28;5036710;28;20019;-76
2023/04/12 00:29:30;;;;;;;;;;;;;;;3.16;100.00;100031.75;5036562;28;20000;-77
2023/04/12 00:31:56;;;;;;;;;;;;;;;3.14;100.00;100025.75;5036661;28;19936;-76
2023/04/12 00:34:21;;;;;;;;;;;;;;;3.08;100.00;100024.75;5036677;28;19924;-76
2023/04/12 00:36:46;;;;;;;;;;;;;;;3.09;100.00;100027.09;5036459;28;19966;-76
2023/04/12 00:39:12;;;;;;;;;;;;;;;3.09;100.00;100026.31;5002302;28;19920;-76
2023/04/12 00:41:37;;;;;;;;;;;;;;;3.14;100.00;100025.75;5018674;28;20414;-76
2023/04/12 00:44:03;;;;;;;;;;;;;;;3.12;100.00;100022.63;5036515;28;19913;-76
2023/04/12 00:46:28;;;;;;;;;;;;;;;3.13;100.00;100027.78;5036235;28;19995;-75
2023/04/12 00:48:55;;;;;;;;;;;;;;;3.11;100.00;100021.81;5036214;28;20366;-76
2023/04/12 00:51:21;;;;;;;;;;;;;;;3.12;100.00;100036.72;5036152;28;20386;-77
2023/04/12 00:53:46;;;;;;;;;;;;;;;3.13;100.00;100030.59;5036218;28;19961;-76
2023/04/12 00:56:12;;;;;;;;;;;;;;;3.09;100.00;100029.94;5036031;28;20015;-75
2023/04/12 00:58:37;;;;;;;;;;;;;;;3.08;100.00;100028.34;5036136;28;19956;-77
2023/04/12 01:01:03;;;;;;;;;;;;;;;3.10;100.00;100023.06;5036038;28;20240;-76
2023/04/12 01:03:29;;;;;;;;;;;;;;;3.12;100.00;100033.91;5035951;28;20358;-77
2023/04/12 01:05:54;;;;;;;;;;;;;;;3.13;100.00;100024.97;5035854;28;20231;-75
2023/04/12 01:08:19;;;;;;;;;;;;;;;3.11;100.00;100035.94;5035666;28;19916;-76
2023/04/12 01:10:59;;;;;;;;;;;;;;;3.12;100.00;100028.25;5035911;28;19963;-75
2023/04/12 01:13:44;;;;;;;;;;;;;;;3.11;100.00;100033.09;5018246;28;19921;-75
2023/04/12 01:16:29;;;;;;;;;;;;;;;3.11;100.00;100021.81;5036210;28;19913;-75
2023/04/12 01:18:58;;;;;;;;;;;;;;;3.10;100.00;100025.88;5035886;28;19913;-75
2023/04/12 01:21:26;;;;;;;;;;;;;;;3.09;100.00;100020.66;5018526;28;19913;-76
2023/04/12 01:24:04;;;;;;;;;;;;;;;3.09;100.00;100017.84;5035658;28;19920;-76
2023/04/12 01:26:33;;;;;;;;;;;;;;;3.06;100.00;100015.94;5034067;28;19913;-76
2023/04/12 01:29:00;;;;;;;;;;;;;;;3.03;100.00;100016.84;5033611;28;20383;-74
2023/04/12 01:31:26;;;;;;;;;;;;;;;2.99;100.00;100021.78;5015655;28;19917;-75
2023/04/12 01:33:51;;;;;;;;;;;;;;;2.96;100.00;100019.84;5033654;28;19920;-76
2023/04/12 01:36:17;;;;;;;;;;;;;;;2.92;100.00;100027.66;5015622;28;20384;-76
2023/04/12 01:38:42;;;;;;;;;;;;;;;2.90;100.00;100032.94;5015486;28;19913;-77
2023/04/12 01:41:08;;;;;;;;;;;;;;;2.85;100.00;100023.00;5033249;28;20020;-76
2023/04/12 01:43:34;;;;;;;;;;;;;;;2.82;100.00;100029.53;5015525;28;19920;-76
2023/04/12 01:46:00;;;;;;;;;;;;;;;2.81;100.00;100015.88;5011796;28;19922;-76
2023/04/12 01:48:25;;;;;;;;;;;;;;;2.76;100.00;100028.50;5013664;28;20205;-77
2023/04/12 01:50:55;;;;;;;;;;;;;;;2.73;100.00;100018.13;5012112;28;19914;-76
2023/04/12 01:53:28;;;;;;;;;;;;;;;2.74;100.00;100019.66;5011767;28;20012;-76
2023/04/12 01:55:55;;;;;;;;;;;;;;;2.72;100.00;100016.53;5012245;28;19920;-75
2023/04/12 01:58:21;;;;;;;;;;;;;;;2.69;100.00;100018.19;5015006;28;19917;-77
2023/04/12 02:00:46;;;;;;;;;;;;;;;2.69;100.00;100014.56;4997639;28;19914;-76
2023/04/12 02:03:11;;;;;;;;;;;;;;;2.66;100.00;100015.47;5015480;28;19940;-75
2023/04/12 02:05:36;;;;;;;;;;;;;;;2.64;100.00;100001.03;5014254;28;19924;-75
2023/04/12 02:08:02;;;;;;;;;;;;;;;2.63;100.00;100007.91;5013880;28;19917;-75
2023/04/12 02:10:31;;;;;;;;;;;;;;;2.59;100.00;100007.22;5015277;28;19917;-76
2023/04/12 02:13:00;;;;;;;;;;;;;;;2.57;100.00;100004.06;5014876;28;20279;-75
2023/04/12 02:15:28;;;;;;;;;;;;;;;2.54;100.00;100005.72;5015123;28;20343;-76
2023/04/12 02:17:53;;;;;;;;;;;;;;;2.51;100.00;100003.81;5014379;28;19914;-75
2023/04/12 02:20:19;;;;;;;;;;;;;;;2.48;100.00;99998.28;5014966;28;20363;-76
2023/04/12 02:22:45;;;;;;;;;;;;;;;2.42;100.00;100000.84;5014887;28;19914;-75
2023/04/12 02:25:10;;;;;;;;;;;;;;;2.41;100.00;100002.06;5014942;28;19979;-76
2023/04/12 02:27:35;;;;;;;;;;;;;;;2.40;100.00;99999.69;5014850;28;19913;-76
2023/04/12 02:30:01;;;;;;;;;;;;;;;2.37;100.00;99997.78;5014939;28;19914;-76
2023/04/12 02:32:26;;;;;;;;;;;;;;;2.37;100.00;99992.13;5014778;28;20282;-76
2023/04/12 02:34:52;;;;;;;;;;;;;;;2.36;100.00;99991.34;5014631;28;19939;-75
2023/04/12 02:37:20;;;;;;;;;;;;;;;2.35;100.00;99990.53;5014370;28;20274;-76
2023/04/12 02:39:46;;;;;;;;;;;;;;;2.33;100.00;99986.59;5014763;28;19917;-76
2023/04/12 02:42:12;;;;;;;;;;;;;;;2.30;100.00;99977.00;5014729;28;19919;-77
2023/04/12 02:44:37;;;;;;;;;;;;;;;2.26;100.00;99976.28;5017139;28;20352;-77
2023/04/12 02:47:02;;;;;;;;;;;;;;;2.24;100.00;99980.81;5034138;28;19920;-76
2023/04/12 02:49:27;;;;;;;;;;;;;;;2.21;100.00;99979.66;5034197;28;19913;-76
2023/04/12 02:51:53;;;;;;;;;;;;;;;2.19;100.00;99973.66;5034440;28;19917;-76
2023/04/12 02:54:18;;;;;;;;;;;;;;;2.16;100.00;99977.38;5034901;28;19962;-76
2023/04/12 02:56:43;;;;;;;;;;;;;;;2.14;100.00;99964.97;5036773;28;19913;-76
2023/04/12 02:59:09;;;;;;;;;;;;;;;2.13;100.00;99969.03;5051305;28;19913;-76
2023/04/12 03:01:34;;;;;;;;;;;;;;;2.12;100.00;99965.41;5032447;28;19920;-76
2023/04/12 03:04:00;;;;;;;;;;;;;;;2.09;100.00;99968.34;5049574;28;19917;-77
2023/04/12 03:06:26;;;;;;;;;;;;;;;2.07;100.00;99968.75;5021745;28;19913;-75
2023/04/12 03:08:51;;;;;;;;;;;;;;;2.05;100.00;99964.78;5037506;28;19943;-74
2023/04/12 03:11:16;;;;;;;;;;;;;;;2.05;100.00;99957.13;5036886;28;19913;-75
2023/04/12 03:13:42;;;;;;;;;;;;;;;2.02;100.00;99955.22;5017491;28;19913;-76
2023/04/12 03:16:23;;;;;;;;;;;;;;;2.00;100.00;99965.34;5033811;28;20290;-77
2023/04/12 03:18:49;;;;;;;;;;;;;;;1.97;100.00;99967.03;5033498;28;19913;-75
2023/04/12 03:21:15;;;;;;;;;;;;;;;1.92;100.00;99976.81;5034037;28;20023;-76
2023/04/12 03:23:40;;;;;;;;;;;;;;;1.91;100.00;99974.41;5015942;28;20003;-76
2023/04/12 03:26:06;;;;;;;;;;;;;;;1.82;100.00;99975.03;5015845;28;19953;-75
2023/04/12 03:28:31;;;;;;;;;;;;;;;1.84;100.00;99966.97;5033567;28;19936;-77
2023/04/12 03:30:56;;;;;;;;;;;;;;;1.84;100.00;99972.59;5033335;28;20409;-75
2023/04/12 03:33:22;;;;;;;;;;;;;;;1.86;100.00;99974.94;5033132;28;19964;-75
2023/04/12 03:35:47;;;;;;;;;;;;;;;1.84;100.00;99975.41;5033551;28;19913;-75
2023/04/12 03:38:12;;;;;;;;;;;;;;;1.84;100.00;99972.59;5033590;28;19914;-75
2023/04/12 03:40:38;;;;;;;;;;;;;;;1.83;100.00;99978.66;5033260;28;19913;-75
2023/04/12 03:43:03;;;;;;;;;;;;;;;1.79;100.00;99977.97;5015839;28;19995;-76
2023/04/12 03:45:28;;;;;;;;;;;;;;;1.75;100.00;99980.84;5033102;28;20382;-76
2023/04/12 03:47:53;;;;;;;;;;;;;;;1.74;100.00;99978.50;5015455;28;20008;-75
2023/04/12 03:50:19;;;;;;;;;;;;;;;1.73;100.00;99985.34;5033232;28;19913;-75
2023/04/12 03:52:44;;;;;;;;;;;;;;;1.70;100.00;99983.44;5015706;28;19960;-75
2023/04/12 03:55:11;;;;;;;;;;;;;;;1.69;100.00;99985.44;4999132;28;19924;-73
2023/04/12 03:57:36;;;;;;;;;;;;;;;1.73;100.00;99980.50;5033336;28;19975;-73
2023/04/12 04:00:02;;;;;;;;;;;;;;;1.72;100.00;99978.94;5033330;28;20389;-73
2023/04/12 04:02:30;;;;;;;;;;;;;;;1.78;100.00;99982.00;5032987;28;19920;-72
2023/04/12 04:04:55;;;;;;;;;;;;;;;1.81;100.00;99984.72;5016013;28;19913;-74
2023/04/12 04:07:22;;;;;;;;;;;;;;;1.84;100.00;99983.88;5059683;28;19917;-71
2023/04/12 04:09:49;;;;;;;;;;;;;;;1.86;100.00;99987.00;5054713;28;19916;-72
2023/04/12 04:12:15;;;;;;;;;;;;;;;1.87;100.00;99982.16;5072697;28;19916;-74
2023/04/12 04:14:41;;;;;;;;;;;;;;;1.87;100.00;99980.16;5055197;28;19925;-74
2023/04/12 04:17:07;;;;;;;;;;;;;;;1.89;100.00;99974.09;5060243;28;20019;-72
2023/04/12 04:19:32;;;;;;;;;;;;;;;1.89;100.00;99972.06;5052701;28;19956;-73
2023/04/12 04:22:00;;;;;;;;;;;;;;;1.90;100.00;99970.81;5053215;28;19912;-72
2023/04/12 04:24:27;;;;;;;;;;;;;;;1.94;100.00;99958.66;5052263;28;20361;-73
2023/04/12 04:26:55;;;;;;;;;;;;;;;1.97;100.00;99969.03;5035315;28;19920;-73
2023/04/12 04:29:21;;;;;;;;;;;;;;;2.00;100.00;99974.56;5052324;28;19967;-73
2023/04/12 04:31:47;;;;;;;;;;;;;;;2.03;100.00;99970.91;5051990;28;19925;-73
2023/04/12 04:34:13;;;;;;;;;;;;;;;2.07;100.00;99973.59;5039000;28;19917;-73
2023/04/12 04:36:42;;;;;;;;;;;;;;;1.86;100.00;99939.13;5014881;28;20308;-72
2023/04/12 04:39:09;;;;;;;;;;;;;;;2.14;100.00;99981.88;5032667;28;20306;-73
2023/04/12 04:41:38;;;;;;;;;;;;;;;2.17;100.00;99975.34;5041260;28;19916;-75
2023/04/12 04:44:09;;;;;;;;;;;;;;;2.22;100.00;99972.00;5052696;28;19956;-73
2023/04/12 04:46:38;;;;;;;;;;;;;;;2.28;100.00;99973.03;5057004;28;19928;-75
2023/04/12 04:49:05;;;;;;;;;;;;;;;2.34;100.00;99965.63;5056524;28;19935;-74
2023/04/12 04:51:32;;;;;;;;;;;;;;;2.38;100.00;99968.34;5038287;28;19950;-75
2023/04/12 04:53:59;;;;;;;;;;;;;;;2.42;100.00;99969.81;5038613;28;19923;-76
2023/04/12 04:56:25;;;;;;;;;;;;;;;2.47;100.00;99969.28;5040091;28;19928;-82
2023/04/12 04:58:51;;;;;;;;;;;;;;;2.54;100.00;99966.25;5046846;28;19963;-79
2023/04/12 05:01:19;;;;;;;;;;;;;;;2.63;100.00;99968.44;5041106;28;20362;-78
2023/04/12 05:03:45;;;;;;;;;;;;;;;2.70;100.00;99968.22;5058446;28;19920;-80
2023/04/12 05:06:10;;;;;;;;;;;;;;;2.77;100.00;99970.84;5061573;28;19916;-82
2023/04/12 05:08:37;;;;;;;;;;;;;;;2.83;100.00;99966.22;5058211;28;19948;-80
2023/04/12 05:11:03;;;;;;;;;;;;;;;2.90;100.00;99968.81;5067875;28;19924;-81
2023/04/12 05:13:29;;;;;;;;;;;;;;;2.98;100.00;99963.78;5078679;28;20086;-78
2023/04/12 05:15:55;;;;;;;;;;;;;;;3.05;100.00;99961.50;5078678;28;19913;-78
2023/04/12 05:18:22;;;;;;;;;;;;;;;2.91;100.00;99933.72;5050828;28;20337;-81
2023/04/12 05:20:50;;;;;;;;;;;;;;;3.21;100.00;99952.16;5035778;28;19913;-82
2023/04/12 05:23:16;;;;;;;;;;;;;;;3.31;100.00;99944.59;5035705;28;19982;-81
2023/04/12 05:25:45;;;;;;;;;;;;;;;3.52;100.00;99933.41;5036196;28;19917;-81
2023/04/12 05:28:13;;;;;;;;;;;;;;;3.72;100.00;99933.16;5036762;28;19924;-80
2023/04/12 05:30:41;;;;;;;;;;;;;;;3.77;100.00;99938.22;5019829;28;19971;-80
2023/04/12 05:33:06;;;;;;;;;;;;;;;3.84;100.00;99937.97;5036020;28;19972;-86
2023/04/12 05:35:33;;;;;;;;;;;;;;;3.90;100.00;99944.66;5018694;28;19913;-83
2023/04/12 05:37:59;;;;;;;;;;;;;;;3.97;100.00;99941.56;5036208;28;19913;-82
2023/04/12 05:40:24;;;;;;;;;;;;;;;4.04;100.00;99932.84;5034830;28;20290;-75
2023/04/12 05:42:50;;;;;;;;;;;;;;;4.11;100.00;99931.03;5033725;28;19928;-72
2023/04/12 05:45:15;;;;;;;;;;;;;;;4.15;100.00;99928.88;5032899;28;19967;-75
2023/04/12 05:47:40;;;;;;;;;;;;;;;4.16;100.00;99936.09;5032961;28;20378;-72
2023/04/12 05:50:06;;;;;;;;;;;;;;;4.19;100.00;99938.00;5032843;28;20321;-72
2023/04/12 05:52:32;;;;;;;;;;;;;;;4.19;100.00;99926.69;5032744;28;19993;-72
2023/04/12 05:54:57;;;;;;;;;;;;;;;4.32;100.00;99936.69;5032779;28;19959;-72
2023/04/12 05:57:22;;;;;;;;;;;;;;;4.44;100.00;99938.69;5033062;28;20058;-72
2023/04/12 05:59:47;;;;;;;;;;;;;;;4.57;100.00;99938.63;5034656;28;20389;-72
2023/04/12 06:02:13;;;;;;;;;;;;;;;4.67;100.00;99940.25;5035220;28;19938;-74
2023/04/12 06:04:39;;;;;;;;;;;;;;;4.82;100.00;99944.13;5016959;28;20369;-71
2023/04/12 06:07:05;;;;;;;;;;;;;;;4.96;100.00;99939.19;5016894;28;20028;-73
2023/04/12 06:09:30;;;;;;;;;;;;;;;5.06;100.00;99947.25;5034471;28;20008;-73
2023/04/12 06:11:56;;;;;;;;;;;;;;;5.13;100.00;99934.88;5034643;28;19917;-72
2023/04/12 06:14:21;;;;;;;;;;;;;;;5.22;100.00;99932.88;5034865;28;19913;-73
2023/04/12 06:16:46;;;;;;;;;;;;;;;5.35;100.00;99930.72;5034083;28;20553;-73
2023/04/12 06:19:12;;;;;;;;;;;;;;;5.50;100.00;99928.09;5016183;28;20372;-73
2023/04/12 06:21:37;;;;;;;;;;;;;;;5.67;100.00;99920.91;5017025;28;19913;-71
2023/04/12 06:24:02;;;;;;;;;;;;;;;5.80;100.00;99921.56;5016765;28;20012;-73
2023/04/12 06:26:27;;;;;;;;;;;;;;;5.95;100.00;99915.28;5017136;28;19931;-73
2023/04/12 06:28:53;;;;;;;;;;;;;;;6.40;100.00;99926.66;5034514;28;19940;-73
2023/04/12 06:31:18;;;;;;;;;;;;;;;8.35;100.00;99920.81;5034246;28;19913;-73
2023/04/12 06:33:43;;;;;;;;;;;;;;;10.97;100.00;99916.16;5016301;28;20039;-73
2023/04/12 06:36:10;;;;;;;;;;;;;;;13.08;100.00;99916.56;5033893;28;19995;-72
2023/04/12 06:38:35;;;;;;;;;;;;;;;15.09;100.00;99911.03;5033897;28;19916;-73
2023/04/12 06:41:01;;;;;;;;;;;;;;;17.63;94.49;99913.50;5016135;28;19913;-73
2023/04/12 06:43:26;;;;;;;;;;;;;;;20.13;79.75;99922.41;5016118;28;19964;-73
2023/04/12 06:45:51;;;;;;;;;;;;;;;22.31;57.53;99927.91;5033882;28;19921;-72
2023/04/12 06:48:16;;;;;;;;;;;;;;;24.14;48.58;99928.53;5033835;28;19913;-73
2023/04/12 06:50:43;;;;;;;;;;;;;;;25.39;39.15;99926.69;5033798;28;19959;-72
2023/04/12 06:53:08;;;;;;;;;;;;;;;25.51;33.70;99921.09;5033831;28;19921;-72
2023/04/12 06:55:33;;;;;;;;;;;;;;;25.99;37.05;99900.78;5034653;28;19994;-72
2023/04/12 06:57:59;;;;;;;;;;;;;;;27.08;34.89;99912.97;5034199;28;20196;-71
2023/04/12 07:00:24;;;;;;;;;;;;;;;27.85;31.16;99906.13;5000353;28;19924;-72
2023/04/12 07:02:51;;;;;;;;;;;;;;;28.34;30.89;99902.28;5034396;28;19913;-70
2023/04/12 07:05:16;;;;;;;;;;;;;;;29.24;30.11;99891.50;5032589;28;20043;-73
2023/04/12 07:07:41;;;;;;;;;;;;;;;29.76;28.76;99881.63;5034765;28;19952;-71
2023/04/12 07:10:07;;;;;;;;;;;;;;;30.20;27.26;99881.50;5052025;28;20312;-73
2023/04/12 07:12:32;;;;;;;;;;;;;;;30.75;26.63;99876.00;5053761;28;19916;-73
2023/04/12 07:14:58;;;;;;;;;;;;;;;31.19;25.87;99872.72;5165328;22;20020;-81
2023/04/12 07:17:25;;;;;;;;;;;;;;;31.03;24.00;99871.75;5072997;28;19912;-82
2023/04/12 07:19:52;;;;;;;;;;;;;;;31.25;25.24;99855.34;5073734;28;19995;-79
2023/04/12 07:22:26;;;;;;;;;;;;;;;32.04;25.54;99864.91;5056128;28;19916;-81
2023/04/12 07:24:52;;;;;;;;;;;;;;;32.78;23.25;99861.44;5073771;28;19916;-80
2023/04/12 07:27:17;;;;;;;;;;;;;;;33.05;23.98;99849.47;5073550;28;19916;-80
2023/04/12 07:29:44;;;;;;;;;;;;;;;32.86;22.97;99850.00;5074014;28;20265;-80
2023/04/12 07:32:12;;;;;;;;;;;;;;;32.35;23.67;99838.50;5073957;28;20026;-80
2023/04/12 07:34:38;;;;;;;;;;;;;;;32.19;22.89;99837.66;5073751;28;19913;-80
2023/04/12 07:37:04;;;;;;;;;;;;;;;32.24;23.92;99837.19;5073532;28;19919;-83
2023/04/12 07:39:30;;;;;;;;;;;;;;;32.61;22.79;99845.00;5073711;28;19995;-81
2023/04/12 07:41:56;;;;;;;;;;;;;;;32.70;22.00;99828.44;5075280;28;19916;-81
2023/04/12 07:44:22;;;;;;;;;;;;;;;32.34;21.94;99821.41;5073698;28;19912;-81
2023/04/12 07:46:47;;;;;;;;;;;;;;;30.67;22.26;99813.53;5073380;28;20288;-81
2023/04/12 07:49:13;;;;;;;;;;;;;;;29.76;24.19;99820.53;5073392;28;19958;-80
2023/04/12 07:51:38;;;;;;;;;;;;;;;30.54;23.79;99815.75;5073477;28;19916;-81
2023/04/12 07:54:04;;;;;;;;;;;;;;;31.29;23.53;99814.22;5073699;28;20324;-79
2023/04/12 07:56:34;;;;;;;;;;;;;;;31.86;21.78;99819.56;5073604;28;19962;-81
2023/04/12 07:58:59;;;;;;;;;;;;;;;31.57;22.26;99815.03;5073680;28;20016;-80
2023/04/12 08:01:25;;;;;;;;;;;;;;;29.95;23.48;99813.56;5073754;28;20368;-81
2023/04/12 08:03:50;;;;;;;;;;;;;;;28.77;25.04;99806.00;5073678;28;20377;-79
2023/04/12 08:06:16;;;;;;;;;;;;;;;29.62;24.65;99822.56;5073306;28;19912;-81
2023/04/12 08:08:41;;;;;;;;;;;;;;;29.96;24.49;99818.06;5079511;28;20007;-80
2023/04/12 08:11:06;;;;;;;;;;;;;;;30.40;24.61;99811.19;5094065;28;19972;-80
2023/04/12 08:13:32;;;;;;;;;;;;;;;31.33;23.62;99814.47;5093799;28;19924;-80
2023/04/12 08:15:57;;;;;;;;;;;;;;;32.20;22.57;99827.34;5109054;28;20012;-80
2023/04/12 08:18:23;;;;;;;;;;;;;;;31.04;21.76;99810.50;5095830;28;19912;-81
2023/04/12 08:20:48;;;;;;;;;;;;;;;29.68;23.72;99808.22;5097769;28;20301;-81
2023/04/12 08:23:14;;;;;;;;;;;;;;;30.08;24.85;99807.78;5097629;28;19920;-81
2023/04/12 08:25:40;;;;;;;;;;;;;;;30.29;22.71;99800.97;5097618;28;19935;-81
2023/04/12 08:28:08;;;;;;;;;;;;;;;30.14;23.35;99793.44;5097127;28;20272;-80
2023/04/12 08:30:33;;;;;;;;;;;;;;;28.59;24.29;99793.00;5096911;28;19912;-80
2023/04/12 08:32:59;;;;;;;;;;;;;;;28.24;25.17;99801.66;5097657;28;19922;-80
2023/04/12 08:35:24;;;;;;;;;;;;;;;28.66;24.90;99792.03;5097291;28;19915;-80
2023/04/12 08:37:50;;;;;;;;;;;;;;;29.37;24.47;99796.69;5097329;28;19919;-78
2023/04/12 08:40:15;;;;;;;;;;;;;;;29.84;24.36;99796.66;5097395;28;20275;-80
2023/04/12 08:42:40;;;;;;;;;;;;;;;29.95;24.20;99781.16;5097516;28;19912;-77
2023/04/12 08:45:06;;;;;;;;;;;;;;;29.08;24.26;99788.22;5097224;28;20349;-75
2023/04/12 08:47:36;;;;;;;;;;;;;;;27.54;24.85;99782.78;5112354;28;20365;-76
2023/04/12 08:50:07;;;;;;;;;;;;;;;25.99;26.60;99783.63;5108522;28;19912;-77
2023/04/12 08:52:32;;;;;;;;;;;;;;;25.07;28.46;99775.66;5133844;28;19916;-76
2023/04/12 08:54:58;;;;;;;;;;;;;;;25.70;29.32;99787.28;5135740;28;19954;-76
2023/04/12 08:57:23;;;;;;;;;;;;;;;26.72;27.69;99793.69;5116697;28;19912;-76
2023/04/12 08:59:49;;;;;;;;;;;;;;;27.22;26.73;99790.00;5114006;28;19962;-76
2023/04/12 09:02:14;;;;;;;;;;;;;;;27.46;25.98;99785.13;5097266;28;19943;-76
2023/04/12 09:04:52;;;;;;;;;;;;;;;27.74;25.38;99775.41;5086643;28;20139;-77
2023/04/12 09:07:18;;;;;;;;;;;;;;;27.85;25.85;99774.69;5075193;28;19921;-78
2023/04/12 09:09:43;;;;;;;;;;;;;;;26.94;25.69;99770.34;5074164;28;20327;-78
2023/04/12 09:12:09;;;;;;;;;;;;;;;26.61;26.81;99770.88;5073026;28;20299;-76
2023/04/12 09:14:35;;;;;;;;;;;;;;;26.39;26.29;99775.03;5074734;28;19920;-76
2023/04/12 09:17:00;;;;;;;;;;;;;;;25.62;26.87;99769.09;5075431;28;19921;-77
2023/04/12 09:19:29;;;;;;;;;;;;;;;24.84;28.52;99757.66;5074869;28;19917;-77
2023/04/12 09:21:55;;;;;;;;;;;;;;;24.73;28.35;99769.91;5073771;28;20281;-78
2023/04/12 09:24:23;;;;;;;;;;;;;;;24.55;28.51;99767.00;5075468;28;19912;-78
2023/04/12 09:26:54;;;;;;;;;;;;;;;23.89;29.44;99761.38;5075269;28;19921;-77
2023/04/12 09:29:27;;;;;;;;;;;;;;;23.32;30.37;99754.31;5075157;28;20294;-78
2023/04/12 09:32:02;;;;;;;;;;;;;;;23.29;31.20;99755.53;5056622;28;20320;-78
2023/04/12 09:34:29;;;;;;;;;;;;;;;23.57;31.63;99750.63;5074023;28;19917;-75
2023/04/12 09:36:54;;;;;;;;;;;;;;;23.20;30.12;99759.09;5057036;28;19923;-77
2023/04/12 09:39:20;;;;;;;;;;;;;;;22.43;30.79;99757.22;5090764;28;19920;-75
2023/04/12 09:41:45;;;;;;;;;;;;;;;21.61;32.55;99757.69;5089678;28;20431;-76
2023/04/12 09:44:28;;;;;;;;;;;;;;;20.70;32.93;99756.81;5057077;28;19916;-76
2023/04/12 09:46:55;;;;;;;;;;;;;;;19.73;33.75;99750.78;5057904;28;19999;-78
2023/04/12 09:49:34;;;;;;;;;;;;;;;19.06;34.88;99754.72;5075599;28;19955;-78
2023/04/12 09:52:00;;;;;;;;;;;;;;;18.51;37.27;99751.09;5040492;28;20273;-78
2023/04/12 09:54:25;;;;;;;;;;;;;;;18.10;38.00;99751.72;5075362;28;19912;-77
2023/04/12 09:56:51;;;;;;;;;;;;;;;18.02;38.40;99753.75;5057095;28;20012;-78
2023/04/12 09:59:16;;;;;;;;;;;;;;;18.30;39.89;99761.81;5075062;28;19920;-78
2023/04/12 10:01:41;;;;;;;;;;;;;;;18.14;38.41;99755.06;5074524;28;19917;-77
2023/04/12 10:04:07;;;;;;;;;;;;;;;18.09;39.77;99738.59;5056663;28;19966;-77
2023/04/12 10:06:33;;;;;;;;;;;;;;;18.23;40.61;99745.91;5057115;28;20026;-79
2023/04/12 10:09:01;;;;;;;;;;;;;;;18.20;39.62;99744.13;5057120;28;20366;-77
2023/04/12 10:11:26;;;;;;;;;;;;;;;17.85;40.37;99739.66;5075374;28;19912;-77
2023/04/12 10:13:52;;;;;;;;;;;;;;;17.67;40.04;99737.66;5053538;28;20008;-77
2023/04/12 10:16:17;;;;;;;;;;;;;;;17.56;41.37;99730.00;5055278;28;20297;-77
2023/04/12 10:18:43;;;;;;;;;;;;;;;17.66;43.47;99722.44;5053593;28;19913;-77
2023/04/12 10:21:08;;;;;;;;;;;;;;;17.74;42.79;99728.31;5053658;28;19966;-76
2023/04/12 10:23:35;;;;;;;;;;;;;;;17.37;42.23;99732.97;5054224;28;19917;-78
2023/04/12 10:26:01;;;;;;;;;;;;;;;16.88;45.16;99720.25;5053761;28;19991;-75
2023/04/12 10:28:27;;;;;;;;;;;;;;;16.60;46.81;99732.22;5055377;28;19916;-75
2023/04/12 10:30:55;;;;;;;;;;;;;;;16.58;46.46;99719.69;5053669;28;20435;-77
2023/04/12 10:33:25;;;;;;;;;;;;;;;16.60;46.12;99720.69;5053402;28;20290;-77
2023/04/12 10:35:51;;;;;;;;;;;;;;;16.60;47.35;99723.56;5053175;28;19952;-79
2023/04/12 10:38:17;;;;;;;;;;;;;;;16.57;53.99;99716.03;5054363;28;19920;-75
2023/04/12 10:41:01;;;;;;;;;;;;;;;16.47;50.07;99720.63;5052637;28;20293;-77
2023/04/12 10:43:27;;;;;;;;;;;;;;;16.51;49.55;99712.44;5054655;28;19920;-77
2023/04/12 10:45:52;;;;;;;;;;;;;;;16.29;48.97;99710.69;5054126;28;19913;-77
2023/04/12 10:48:36;;;;;;;;;;;;;;;16.10;47.17;99704.16;5054308;28;19935;-77
2023/04/12 10:51:27;;;;;;;;;;;;;;;15.82;47.36;99704.53;5055467;28;19913;-76
2023/04/12 10:54:08;;;;;;;;;;;;;;;15.82;48.01;99695.91;5054489;28;19917;-77
2023/04/12 10:56:35;;;;;;;;;;;;;;;15.86;48.70;99690.59;5054144;28;19913;-78
2023/04/12 10:59:00;;;;;;;;;;;;;;;15.89;49.80;99683.75;5053216;28;19912;-77
2023/04/12 11:01:28;;;;;;;;;;;;;;;15.50;48.85;99683.47;5054168;28;20372;-78
2023/04/12 11:04:05;;;;;;;;;;;;;;;15.13;51.33;99676.31;5053751;28;19912;-78
2023/04/12 11:06:49;;;;;;;;;;;;;;;14.94;51.06;99677.56;5053889;28;19920;-77
2023/04/12 11:09:21;;;;;;;;;;;;;;;14.57;55.17;99675.28;5053717;28;19912;-78
2023/04/12 11:11:47;;;;;;;;;;;;;;;14.34;56.12;99666.84;5053783;28;19917;-78
2023/04/12 11:14:16;;;;;;;;;;;;;;;14.14;57.32;99673.00;5052109;28;19952;-79
2023/04/12 11:17:13;;;;;;;;;;;;;;;13.94;57.68;99662.69;5053713;28;19917;-79
2023/04/12 11:19:40;;;;;;;;;;;;;;;14.05;58.89;99655.31;5053483;28;19917;-79
2023/04/12 11:22:16;;;;;;;;;;;;;;;14.30;59.56;99645.44;5053463;28;19912;-78
2023/04/12 11:24:45;;;;;;;;;;;;;;;14.32;58.18;99649.34;5055821;28;19913;-86
2023/04/12 11:27:10;;;;;;;;;;;;;;;14.15;57.53;99654.44;5057216;28;19935;-84
2023/04/12 11:29:37;;;;;;;;;;;;;;;14.15;56.12;99636.41;5054867;28;20394;-86
2023/04/12 11:32:04;;;;;;;;;;;;;;;14.03;54.96;99632.09;5052274;28;19923;-80
2023/04/12 11:34:34;;;;;;;;;;;;;;;13.86;54.55;99632.19;5053208;28;20361;-82
2023/04/12 11:36:59;;;;;;;;;;;;;;;13.59;58.42;99624.53;5052326;28;19916;-80
2023/04/12 11:39:26;;;;;;;;;;;;;;;13.51;59.16;99630.06;5052379;28;20000;-80
2023/04/12 11:41:52;;;;;;;;;;;;;;;13.34;58.76;99621.47;5052452;28;19999;-78
2023/04/12 11:44:20;;;;;;;;;;;;;;;13.34;59.33;99607.13;5053098;28;19923;-79
2023/04/12 11:46:47;;;;;;;;;;;;;;;13.42;61.06;99599.53;5052168;28;20388;-78
2023/04/12 11:49:20;;;;;;;;;;;;;;;13.41;59.49;99608.69;5051997;28;19917;-79
2023/04/12 11:51:48;;;;;;;;;;;;;;;13.32;55.10;99603.25;5051773;28;20066;-80
2023/04/12 11:54:14;;;;;;;;;;;;;;;13.17;57.66;99586.38;5052071;28;20385;-79
2023/04/12 11:56:39;;;;;;;;;;;;;;;12.93;62.61;99575.53;5052963;28;20073;-78
2023/04/12 11:59:05;;;;;;;;;;;;;;;13.06;64.83;99566.34;5051914;28;19964;-78
2023/04/12 12:01:31;;;;;;;;;;;;;;;13.22;63.30;99554.00;5053758;28;19913;-81
2023/04/12 12:03:58;;;;;;;;;;;;;;;13.36;64.14;99544.28;5035370;28;20019;-80
2023/04/12 12:06:24;;;;;;;;;;;;;;;13.38;64.72;99526.53;5051943;28;19913;-79
2023/04/12 12:08:50;;;;;;;;;;;;;;;13.46;62.33;99539.00;5052131;28;20282;-79
2023/04/12 12:11:20;;;;;;;;;;;;;;;13.21;59.64;99540.97;5053921;28;20396;-78
2023/04/12 12:13:49;;;;;;;;;;;;;;;12.95;59.00;99532.75;5057008;28;19925;-78
2023/04/12 12:16:14;;;;;;;;;;;;;;;12.85;61.68;99522.13;5053250;28;19912;-75
2023/04/12 12:18:44;;;;;;;;;;;;;;;12.94;63.42;99511.13;5053137;28;19986;-78
2023/04/12 12:21:13;;;;;;;;;;;;;;;13.06;64.83;99524.09;5053224;28;19913;-77
2023/04/12 12:23:40;;;;;;;;;;;;;;;12.95;67.14;99504.06;5052635;28;19917;-76
2023/04/12 12:26:06;;;;;;;;;;;;;;;12.88;67.40;99495.25;5051571;28;19996;-75
2023/04/12 12:28:40;;;;;;;;;;;;;;;12.89;67.69;99505.41;5052523;28;20003;-75
2023/04/12 12:31:06;;;;;;;;;;;;;;;12.93;68.24;99503.84;5052945;28;20007;-76
2023/04/12 12:33:36;;;;;;;;;;;;;;;13.04;68.07;99503.78;5034949;28;19929;-80
2023/04/12 12:36:03;;;;;;;;;;;;;;;13.06;68.48;99488.88;5053030;28;19913;-81
2023/04/12 12:38:35;;;;;;;;;;;;;;;12.99;63.77;99510.31;5053019;28;20378;-80
2023/04/12 12:41:20;;;;;;;;;;;;;;;12.92;63.61;99493.66;5035263;28;20039;-80
2023/04/12 12:43:46;;;;;;;;;;;;;;;12.95;64.76;99488.94;5053058;28;20372;-79